Time;durP1;ratioP1;P1;durP2;ratioP2;P2;SDS_P1;SDS_P2;PMS_P1;PMS_P2;Temp;Humidity;BMP_temperature;BMP_pressure;BME280_temperature;BME280_humidity;BME280_pressure;Samples;Min_cycle;Max_cycle;Signal;HPM_P1;HPM_P2
2022/12/05 00:01:37;;;;;;;5.30;1.10;;;30.60;99.90;;;;;;4940805;29;20200;-78
2022/12/05 00:04:09;;;;;;;2.77;1.07;;;31.20;99.90;;;;;;4937130;29;20216;-75
2022/12/05 00:06:39;;;;;;;2.73;1.10;;;31.40;94.90;;;;;;4934554;29;20185;-75
2022/12/05 00:09:09;;;;;;;5.30;1.03;;;31.50;92.20;;;;;;4936890;29;20188;-74
2022/12/05 00:11:39;;;;;;;6.90;1.00;;;31.00;90.00;;;;;;4948571;29;20670;-73
2022/12/05 00:14:08;;;;;;;4.10;1.13;;;31.00;94.50;;;;;;4933654;29;20196;-72
2022/12/05 00:16:38;;;;;;;7.10;1.17;;;31.30;96.10;;;;;;4931855;29;20618;-70
2022/12/05 00:19:08;;;;;;;7.43;1.42;;;31.90;94.20;;;;;;4936869;29;20188;-72
2022/12/05 00:21:37;;;;;;;10.75;1.13;;;31.80;94.40;;;;;;4936189;29;20204;-70
2022/12/05 00:24:07;;;;;;;6.30;1.30;;;31.90;95.60;;;;;;4937931;29;20185;-74
2022/12/05 00:26:35;;;;;;;5.38;1.10;;;31.60;95.20;;;;;;4937651;29;20188;-70
2022/12/05 00:29:04;;;;;;;4.40;1.30;;;31.60;93.40;;;;;;4937533;29;20725;-69
2022/12/05 00:31:31;;;;;;;7.93;1.10;;;31.90;92.90;;;;;;4938059;29;20266;-72
2022/12/05 00:34:03;;;;;;;2.57;1.00;;;32.30;94.40;;;;;;4937711;29;20192;-74
2022/12/05 00:36:34;;;;;;;3.60;1.00;;;32.40;88.30;;;;;;4937621;29;20196;-77
2022/12/05 00:39:05;;;;;;;8.52;1.10;;;32.30;88.00;;;;;;4937995;29;20196;-78
2022/12/05 00:41:33;;;;;;;2.80;0.85;;;32.30;83.60;;;;;;4937783;29;20185;-76
2022/12/05 00:44:02;;;;;;;5.40;1.50;;;32.80;84.90;;;;;;4937253;29;20686;-77
2022/12/05 00:46:32;;;;;;;8.17;1.27;;;32.80;82.80;;;;;;4937596;29;20662;-71
2022/12/05 00:49:01;;;;;;;4.63;1.20;;;32.50;83.80;;;;;;4938006;29;20231;-77
2022/12/05 00:51:43;;;;;;;5.90;0.93;;;32.20;80.40;;;;;;4937394;29;20208;-77
2022/12/05 00:54:14;;;;;;;3.33;1.00;;;32.60;83.10;;;;;;4937511;29;20184;-70
2022/12/05 00:56:43;;;;;;;2.45;1.15;;;33.10;89.50;;;;;;4937525;29;20289;-70
2022/12/05 00:59:16;;;;;;;3.60;1.02;;;33.10;80.70;;;;;;4936650;29;20240;-71
2022/12/05 01:01:46;;;;;;;7.32;1.10;;;33.10;83.10;;;;;;4937541;29;20191;-68
2022/12/05 01:04:19;;;;;;;4.38;1.17;;;33.00;78.10;;;;;;4937177;29;20643;-72
2022/12/05 01:06:47;;;;;;;5.13;1.20;;;33.10;74.40;;;;;;4941143;29;20181;-74
2022/12/05 01:09:17;;;;;;;3.78;0.95;;;33.50;78.10;;;;;;4936406;29;20192;-68
2022/12/05 01:11:46;;;;;;;6.65;1.13;;;33.60;71.00;;;;;;4936867;29;20227;-71
2022/12/05 01:14:17;;;;;;;8.57;1.48;;;33.80;74.00;;;;;;4939533;29;20216;-68
2022/12/05 01:16:46;;;;;;;2.63;1.10;;;33.60;71.10;;;;;;4956343;29;20187;-72
2022/12/05 01:19:17;;;;;;;5.15;1.15;;;33.90;72.10;;;;;;4945827;29;20187;-69
2022/12/05 01:21:46;;;;;;;4.00;1.20;;;34.50;68.80;;;;;;4936588;29;20553;-69
2022/12/05 01:24:14;;;;;;;2.83;0.93;;;34.50;86.10;;;;;;4936755;29;20251;-72
2022/12/05 01:26:43;;;;;;;9.88;1.35;;;34.30;66.10;;;;;;4936783;29;20181;-68
2022/12/05 01:29:14;;;;;;;2.35;0.90;;;34.10;69.00;;;;;;4935952;29;20261;-70
2022/12/05 01:31:42;;;;;;;4.57;1.38;;;34.10;67.30;;;;;;4936263;29;20212;-68
2022/12/05 01:34:16;;;;;;;6.30;1.20;;;34.30;66.80;;;;;;4936902;29;20239;-69
2022/12/05 01:36:44;;;;;;;6.68;1.50;;;33.80;65.80;;;;;;4936210;29;20196;-68
2022/12/05 01:39:13;;;;;;;6.82;1.10;;;34.10;70.20;;;;;;4936919;29;20192;-68
2022/12/05 01:41:48;;;;;;;7.65;1.42;;;33.80;62.10;;;;;;4936586;29;20552;-69
2022/12/05 01:44:16;;;;;;;3.40;1.02;;;34.20;67.80;;;;;;4936181;29;20700;-69
2022/12/05 01:46:49;;;;;;;2.90;1.23;;;34.40;61.60;;;;;;4936753;29;20643;-68
2022/12/05 01:49:19;;;;;;;3.80;1.30;;;34.70;65.20;;;;;;4936183;29;20723;-69
2022/12/05 01:51:57;;;;;;;4.90;1.35;;;34.80;57.90;;;;;;4936001;29;20327;-69
2022/12/05 01:54:25;;;;;;;12.77;1.88;;;34.70;59.40;;;;;;4935874;29;20259;-71
2022/12/05 01:56:59;;;;;;;10.43;2.00;;;34.40;59.40;;;;;;4936441;29;20181;-76
2022/12/05 01:59:29;;;;;;;4.00;1.42;;;34.50;59.20;;;;;;4936083;29;20614;-69
2022/12/05 02:01:57;;;;;;;4.00;1.38;;;34.70;61.50;;;;;;4936504;29;20590;-76
2022/12/05 02:04:26;;;;;;;6.85;1.75;;;34.50;60.10;;;;;;4935777;29;20188;-69
2022/12/05 02:06:55;;;;;;;3.83;1.17;;;34.10;58.80;;;;;;4936392;29;20192;-69
2022/12/05 02:09:23;;;;;;;6.30;1.20;;;34.40;61.90;;;;;;4935738;29;20246;-69
2022/12/05 02:11:56;;;;;;;3.78;1.10;;;34.50;60.10;;;;;;4934857;29;20215;-69
2022/12/05 02:14:32;;;;;;;8.77;1.42;;;34.60;60.20;;;;;;4935842;29;20195;-68
2022/12/05 02:17:09;;;;;;;6.80;1.20;;;34.90;56.70;;;;;;4936185;29;20231;-67
2022/12/05 02:19:59;;;;;;;7.53;1.38;;;34.60;61.20;;;;;;4935761;29;20180;-73
2022/12/05 02:22:45;;;;;;;5.68;1.80;;;34.60;57.80;;;;;;4935464;29;20180;-68
2022/12/05 02:25:49;;;;;;;7.93;1.25;;;34.60;59.70;;;;;;4935717;29;20181;-67
2022/12/05 02:28:44;;;;;;;4.28;1.42;;;34.70;57.70;;;;;;4917897;29;20283;-67
2022/12/05 02:31:33;;;;;;;3.17;1.15;;;35.00;54.50;;;;;;4935740;29;20243;-68
2022/12/05 02:34:09;;;;;;;3.80;1.20;;;34.80;55.80;;;;;;4935294;29;20650;-68
2022/12/05 02:36:55;;;;;;;5.50;1.27;;;35.00;58.90;;;;;;4939431;29;20210;-68
2022/12/05 02:39:38;;;;;;;3.95;1.65;;;35.50;56.00;;;;;;4955101;29;20618;-71
2022/12/05 02:42:45;;;;;;;4.28;1.35;;;35.30;55.10;;;;;;4953888;28;20207;-73
2022/12/05 02:45:16;;;;;;;6.40;1.23;;;35.50;55.40;;;;;;4953002;29;20188;-69
2022/12/05 02:47:48;;;;;;;7.47;1.10;;;35.60;53.40;;;;;;4938721;29;20233;-70
2022/12/05 02:50:23;;;;;;;3.70;1.13;;;35.50;52.80;;;;;;4934999;29;20190;-69
2022/12/05 02:52:53;;;;;;;5.53;1.17;;;35.70;52.40;;;;;;4935449;29;20227;-76
2022/12/05 02:55:23;;;;;;;6.88;1.40;;;35.70;49.70;;;;;;4935094;29;20263;-68
2022/12/05 02:57:56;;;;;;;3.45;1.20;;;35.80;51.10;;;;;;4936788;29;20702;-70
2022/12/05 03:00:24;;;;;;;3.88;1.48;;;36.00;51.30;;;;;;4919506;29;20181;-72
2022/12/05 03:02:57;;;;;;;2.55;1.17;;;36.20;49.80;;;;;;4935377;29;20184;-70
2022/12/05 03:06:34;;;;;;;3.70;1.30;;;36.00;51.20;;;;;;4934346;29;20188;-69
2022/12/05 03:09:12;;;;;;;5.00;1.27;;;36.10;49.40;;;;;;4804434;29;20204;-69
2022/12/05 03:11:48;;;;;;;5.78;1.63;;;35.90;47.10;;;;;;4923112;29;20247;-69
2022/12/05 03:14:24;;;;;;;4.72;1.25;;;36.00;47.90;;;;;;4935186;29;20183;-69
2022/12/05 03:16:55;;;;;;;5.47;1.20;;;36.00;46.30;;;;;;4917448;29;20192;-69
2022/12/05 03:19:49;;;;;;;5.10;1.40;;;35.90;47.10;;;;;;4934625;29;20192;-69
2022/12/05 03:22:22;;;;;;;3.17;1.10;;;35.90;46.80;;;;;;4935059;29;20212;-72
2022/12/05 03:24:50;;;;;;;5.13;1.55;;;35.70;45.20;;;;;;4934620;29;20647;-70
2022/12/05 03:27:50;;;;;;;9.05;1.42;;;35.80;45.00;;;;;;4934558;29;20185;-77
2022/12/05 03:30:21;;;;;;;3.97;0.95;;;35.90;45.20;;;;;;4934838;29;20244;-76
2022/12/05 03:32:51;;;;;;;7.43;1.27;;;36.20;44.40;;;;;;4935134;29;20215;-69
2022/12/05 03:35:49;;;;;;;5.43;1.63;;;36.30;45.80;;;;;;4933849;29;20544;-76
2022/12/05 03:38:21;;;;;;;5.03;1.33;;;36.30;45.20;;;;;;4934539;29;20219;-69
2022/12/05 03:41:14;;;;;;;2.17;1.00;;;36.40;43.30;;;;;;4934385;29;20185;-69
2022/12/05 03:43:48;;;;;;;4.18;1.35;;;36.50;44.40;;;;;;4934546;29;20172;-74
2022/12/05 03:46:42;;;;;;;3.00;1.20;;;36.90;43.00;;;;;;4934398;29;20207;-69
2022/12/05 03:49:29;;;;;;;2.88;1.20;;;36.90;42.80;;;;;;4934168;29;20240;-71
2022/12/05 03:52:08;;;;;;;7.20;1.17;;;37.20;37.70;;;;;;4934605;29;20311;-75
2022/12/05 03:54:44;;;;;;;3.00;0.90;;;37.10;39.40;;;;;;4937053;29;20706;-69
2022/12/05 03:57:21;;;;;;;5.00;1.23;;;37.40;40.40;;;;;;4938168;29;20220;-69
2022/12/05 04:00:06;;;;;;;3.13;1.05;;;37.30;38.30;;;;;;4938347;29;20211;-68
2022/12/05 04:06:00;;;;;;;7.72;1.63;;;36.80;38.90;;;;;;4937982;29;20231;-69
2022/12/05 04:08:43;;;;;;;6.00;1.13;;;37.30;38.50;;;;;;4938403;29;20651;-74
2022/12/05 04:11:19;;;;;;;6.82;1.58;;;37.30;39.10;;;;;;4937958;29;20181;-68
2022/12/05 04:14:02;;;;;;;4.13;1.33;;;37.10;36.10;;;;;;4938229;29;20196;-72
2022/12/05 04:22:55;;;;;;;4.78;1.00;;;36.00;34.60;;;;;;4927319;29;20284;-71
2022/12/05 04:25:33;;;;;;;5.18;1.25;;;35.60;35.60;;;;;;4937369;29;20267;-70
2022/12/05 04:28:20;;;;;;;5.63;1.13;;;35.20;35.60;;;;;;4937826;29;20244;-70
2022/12/05 04:31:01;;;;;;;6.15;1.27;;;35.00;38.20;;;;;;4937108;29;20216;-71
2022/12/05 04:33:57;;;;;;;3.47;1.40;;;34.80;39.20;;;;;;4936262;29;20276;-72
2022/12/05 04:36:33;;;;;;;9.15;1.27;;;34.60;38.60;;;;;;4933242;29;20299;-69
2022/12/05 04:39:08;;;;;;;4.78;1.13;;;34.30;39.30;;;;;;4937520;29;20212;-72
2022/12/05 04:41:46;;;;;;;6.88;1.20;;;34.00;39.80;;;;;;4937398;29;20184;-69
2022/12/05 04:44:18;;;;;;;3.42;1.20;;;33.90;41.20;;;;;;4937731;29;20327;-71
2022/12/05 04:46:49;;;;;;;6.60;1.40;;;33.80;41.90;;;;;;4937629;29;20177;-72
2022/12/05 04:49:24;;;;;;;4.47;1.52;;;33.80;42.90;;;;;;4936929;29;20597;-70
2022/12/05 04:51:55;;;;;;;6.65;1.20;;;33.70;43.80;;;;;;4937454;29;20212;-70
2022/12/05 04:54:38;;;;;;;10.70;1.40;;;33.20;43.80;;;;;;4937629;29;20181;-72
2022/12/05 04:57:20;;;;;;;7.78;1.13;;;33.20;45.50;;;;;;4937379;29;20196;-70
2022/12/05 04:59:49;;;;;;;10.38;1.85;;;33.20;47.80;;;;;;4937142;29;20180;-71
2022/12/05 05:02:24;;;;;;;12.57;1.63;;;33.20;55.20;;;;;;4936830;29;20193;-70
2022/12/05 05:04:54;;;;;;;7.13;1.80;;;32.60;55.30;;;;;;4936947;29;20177;-71
2022/12/05 05:07:22;;;;;;;5.85;1.75;;;32.60;51.50;;;;;;4940131;29;20175;-69
2022/12/05 05:09:49;;;;;;;11.77;1.95;;;32.50;50.10;;;;;;4937809;29;20227;-69
2022/12/05 05:12:18;;;;;;;1.25;0.80;;;32.80;48.60;;;;;;4937971;29;20224;-69
2022/12/05 05:14:46;;;;;;;1.48;0.90;;;32.90;45.20;;;;;;4937813;29;20627;-70
2022/12/05 05:17:14;;;;;;;5.63;1.05;;;33.10;43.10;;;;;;4937838;29;20245;-70
2022/12/05 05:19:42;;;;;;;9.65;1.13;;;32.90;43.70;;;;;;4938031;29;20188;-71
2022/12/05 05:22:09;;;;;;;11.95;1.65;;;33.10;43.80;;;;;;4938714;29;20185;-69
2022/12/05 05:24:37;;;;;;;1.58;0.80;;;33.60;41.10;;;;;;4937811;29;20173;-70
2022/12/05 05:27:05;;;;;;;6.03;0.80;;;33.60;41.00;;;;;;4937667;29;20271;-70
2022/12/05 05:29:33;;;;;;;6.32;1.25;;;33.70;42.30;;;;;;4938311;29;20228;-69
2022/12/05 05:32:00;;;;;;;6.03;1.27;;;33.60;42.20;;;;;;4938029;29;20204;-70
2022/12/05 05:34:28;;;;;;;6.25;1.20;;;33.30;42.30;;;;;;4937821;29;20518;-70
2022/12/05 05:36:56;;;;;;;4.97;0.98;;;33.00;43.20;;;;;;4937609;29;20263;-69
2022/12/05 05:39:25;;;;;;;5.18;1.10;;;32.70;42.80;;;;;;4936574;29;20279;-69
2022/12/05 05:41:53;;;;;;;8.35;1.35;;;32.40;43.50;;;;;;4937842;29;20180;-70
2022/12/05 05:44:21;;;;;;;2.42;0.75;;;32.40;42.70;;;;;;4937974;29;20172;-70
2022/12/05 05:46:49;;;;;;;2.72;0.68;;;32.40;44.00;;;;;;4937986;29;20180;-69
2022/12/05 05:49:16;;;;;;;1.98;0.90;;;32.50;44.40;;;;;;4936480;29;20590;-71
2022/12/05 05:51:44;;;;;;;3.00;1.10;;;32.50;43.70;;;;;;4946517;29;20615;-70
2022/12/05 05:54:12;;;;;;;2.78;0.95;;;32.60;41.90;;;;;;4937354;29;20650;-72
2022/12/05 05:56:40;;;;;;;4.45;1.20;;;32.60;41.60;;;;;;4929669;29;20180;-68
2022/12/05 05:59:08;;;;;;;10.18;1.05;;;32.30;47.90;;;;;;4936863;29;20185;-71
2022/12/05 06:01:36;;;;;;;2.60;1.10;;;32.10;57.00;;;;;;4937085;29;20272;-71
2022/12/05 06:04:04;;;;;;;3.83;1.20;;;32.50;62.90;;;;;;4937274;29;20189;-70
2022/12/05 06:06:33;;;;;;;5.25;1.23;;;32.60;68.90;;;;;;4937369;29;20734;-73
2022/12/05 06:09:00;;;;;;;4.53;0.88;;;32.80;73.80;;;;;;4937069;29;20185;-72
2022/12/05 06:11:29;;;;;;;6.68;1.23;;;32.80;71.50;;;;;;4935815;29;20299;-71
2022/12/05 06:13:59;;;;;;;3.83;1.43;;;32.60;77.80;;;;;;4936895;29;20199;-69
2022/12/05 06:16:27;;;;;;;4.00;1.05;;;32.40;77.10;;;;;;4936626;29;20176;-72
2022/12/05 06:18:55;;;;;;;2.15;1.00;;;32.30;80.20;;;;;;4936537;29;20196;-70
2022/12/05 06:21:23;;;;;;;3.50;1.30;;;32.30;81.50;;;;;;4937048;29;20189;-70
2022/12/05 06:23:50;;;;;;;4.87;1.20;;;32.10;84.00;;;;;;4937159;29;20207;-71
2022/12/05 06:26:20;;;;;;;3.57;1.00;;;31.80;86.30;;;;;;4937043;29;20172;-70
2022/12/05 06:28:48;;;;;;;5.00;1.37;;;30.90;93.00;;;;;;4936984;29;20231;-70
2022/12/05 06:31:21;;;;;;;5.53;1.37;;;30.40;98.10;;;;;;4936547;29;20259;-70
2022/12/05 06:33:49;;;;;;;4.60;1.33;;;30.00;99.90;;;;;;4937300;29;20585;-71
2022/12/05 06:36:20;;;;;;;4.03;1.60;;;29.80;99.90;;;;;;4936935;29;20168;-70
2022/12/05 06:38:47;;;;;;;4.60;1.33;;;29.70;99.90;;;;;;4936415;29;20180;-69
2022/12/05 06:41:17;;;;;;;6.17;1.40;;;29.60;99.90;;;;;;4938631;29;20548;-70
2022/12/05 06:43:45;;;;;;;5.43;1.40;;;29.60;99.90;;;;;;4936408;29;20706;-71
2022/12/05 06:46:14;;;;;;;4.60;1.53;;;29.50;99.90;;;;;;4937257;29;20181;-72
2022/12/05 06:48:42;;;;;;;4.57;1.47;;;29.50;99.90;;;;;;4936534;29;20271;-69
2022/12/05 06:51:11;;;;;;;3.40;1.20;;;29.50;99.90;;;;;;4936498;29;20558;-70
2022/12/05 06:53:39;;;;;;;6.33;1.77;;;29.50;99.90;;;;;;4936603;29;20180;-70
2022/12/05 06:56:12;;;;;;;3.37;1.27;;;29.40;99.90;;;;;;4934931;29;20184;-70
2022/12/05 06:58:48;;;;;;;6.50;1.60;;;29.50;99.90;;;;;;4932930;29;20284;-71
2022/12/05 07:01:37;;;;;;;6.73;1.70;;;29.50;99.90;;;;;;4934552;29;20278;-70
2022/12/05 07:04:12;;;;;;;4.97;1.53;;;29.50;99.90;;;;;;4932951;29;20199;-70
2022/12/05 07:06:42;;;;;;;6.30;1.40;;;29.40;99.90;;;;;;4934393;29;20195;-68
2022/12/05 07:09:10;;;;;;;3.57;1.60;;;29.40;99.90;;;;;;4934580;29;20249;-71
2022/12/05 07:11:37;;;;;;;3.70;1.40;;;29.50;99.90;;;;;;4934308;29;20569;-69
2022/12/05 07:14:08;;;;;;;9.07;1.77;;;29.40;99.90;;;;;;4934327;29;20196;-70
2022/12/05 07:16:36;;;;;;;6.10;1.77;;;29.50;99.90;;;;;;4932789;29;20180;-71
2022/12/05 07:19:03;;;;;;;5.03;1.87;;;29.60;99.90;;;;;;4934004;29;20195;-70
2022/12/05 07:21:31;;;;;;;5.57;1.60;;;29.70;99.90;;;;;;4934227;29;20221;-69
2022/12/05 07:23:58;;;;;;;5.17;1.30;;;29.70;99.90;;;;;;4932772;29;20210;-71
2022/12/05 07:26:26;;;;;;;4.00;1.33;;;29.70;99.90;;;;;;4934623;29;20188;-71
2022/12/05 07:28:56;;;;;;;6.90;2.07;;;29.80;99.90;;;;;;4934562;29;20546;-71
2022/12/05 07:31:25;;;;;;;5.83;1.60;;;29.80;99.90;;;;;;4932346;29;20227;-74
2022/12/05 07:33:52;;;;;;;3.97;1.60;;;29.70;99.90;;;;;;4933955;29;20664;-71
2022/12/05 07:36:22;;;;;;;5.07;1.63;;;29.60;99.90;;;;;;4934717;29;20192;-70
2022/12/05 07:38:55;;;;;;;4.47;1.57;;;29.50;99.90;;;;;;4929282;29;20276;-71
2022/12/05 07:41:28;;;;;;;6.23;1.50;;;29.50;99.90;;;;;;4934092;29;20185;-71
2022/12/05 07:43:58;;;;;;;3.20;1.30;;;29.30;99.90;;;;;;4934421;29;20187;-72
2022/12/05 07:46:28;;;;;;;3.57;1.27;;;29.20;99.90;;;;;;4934572;29;20196;-69
2022/12/05 07:48:56;;;;;;;3.07;1.33;;;29.20;99.90;;;;;;4933616;29;20722;-71
2022/12/05 07:51:23;;;;;;;4.43;1.63;;;29.20;99.90;;;;;;4934568;29;20299;-70
2022/12/05 07:53:52;;;;;;;5.30;1.50;;;29.10;99.90;;;;;;4935836;29;20734;-70
2022/12/05 07:56:20;;;;;;;5.27;1.67;;;29.00;99.90;;;;;;4937836;29;20184;-71
2022/12/05 07:58:49;;;;;;;6.83;1.33;;;28.90;99.90;;;;;;4935051;29;20205;-70
2022/12/05 08:01:27;;;;;;;7.53;2.10;;;28.80;99.90;;;;;;4935292;29;20231;-70
2022/12/05 08:03:57;;;;;;;8.13;2.00;;;28.70;99.90;;;;;;4935540;29;20181;-70
2022/12/05 08:06:27;;;;;;;9.43;2.00;;;28.60;99.90;;;;;;4935956;29;20185;-69
2022/12/05 08:08:55;;;;;;;6.97;1.90;;;28.60;99.90;;;;;;4935341;29;20184;-70
2022/12/05 08:11:26;;;;;;;5.87;1.97;;;28.40;99.90;;;;;;4935598;29;20220;-69
2022/12/05 08:13:54;;;;;;;9.60;1.90;;;28.30;99.90;;;;;;4935425;29;20248;-70
2022/12/05 08:16:24;;;;;;;6.07;2.07;;;28.20;99.90;;;;;;4935541;29;20181;-70
2022/12/05 08:19:06;;;;;;;6.07;2.23;;;28.10;99.90;;;;;;4934789;29;20183;-69
2022/12/05 08:21:34;;;;;;;9.43;1.93;;;28.00;99.90;;;;;;4946190;29;20191;-70
2022/12/05 08:24:05;;;;;;;5.57;1.57;;;27.90;99.90;;;;;;4934778;29;20185;-70
2022/12/05 08:26:33;;;;;;;7.77;1.80;;;27.80;99.90;;;;;;4935509;29;20185;-71
2022/12/05 08:29:07;;;;;;;9.90;2.87;;;27.70;99.90;;;;;;4935010;29;20183;-71
2022/12/05 08:31:38;;;;;;;7.20;2.27;;;27.60;99.90;;;;;;4935472;29;20322;-70
2022/12/05 08:34:06;;;;;;;8.17;2.20;;;27.30;99.90;;;;;;4933978;29;20184;-70
2022/12/05 08:36:33;;;;;;;7.13;2.23;;;27.10;99.90;;;;;;4933974;29;20180;-70
2022/12/05 08:39:06;;;;;;;6.00;1.83;;;26.90;99.90;;;;;;4936056;29;20192;-70
2022/12/05 08:41:34;;;;;;;6.40;1.90;;;26.70;99.90;;;;;;4938861;29;20236;-70
2022/12/05 08:44:04;;;;;;;6.13;2.57;;;26.40;99.90;;;;;;4938952;29;20577;-69
2022/12/05 08:46:34;;;;;;;6.23;2.40;;;26.20;99.90;;;;;;4922552;29;20193;-70
2022/12/05 08:49:05;;;;;;;6.67;2.03;;;26.10;99.90;;;;;;4938776;29;20572;-70
2022/12/05 08:51:33;;;;;;;10.50;2.53;;;25.80;99.90;;;;;;4938319;29;20235;-71
2022/12/05 08:54:05;;;;;;;10.53;2.27;;;25.70;99.90;;;;;;4938692;29;20188;-71
2022/12/05 08:56:32;;;;;;;9.97;2.43;;;25.50;99.90;;;;;;4938320;29;20188;-71
2022/12/05 08:59:01;;;;;;;6.27;2.23;;;25.30;99.90;;;;;;4938633;29;20192;-71
2022/12/05 09:01:31;;;;;;;5.67;2.10;;;25.30;99.90;;;;;;4938105;29;20236;-71
2022/12/05 09:04:01;;;;;;;3.93;2.00;;;25.20;99.90;;;;;;4938184;29;20667;-71
2022/12/05 09:06:29;;;;;;;4.03;1.80;;;25.10;99.90;;;;;;4938350;29;20189;-71
2022/12/05 09:08:58;;;;;;;11.17;2.83;;;25.00;99.90;;;;;;4938683;29;20176;-71
2022/12/05 09:11:30;;;;;;;5.43;2.33;;;25.00;99.90;;;;;;4938403;29;20236;-70
2022/12/05 09:13:59;;;;;;;6.50;2.10;;;24.80;99.90;;;;;;4938550;29;20181;-70
2022/12/05 09:16:32;;;;;;;3.63;1.87;;;24.70;99.90;;;;;;4936948;29;20555;-72
2022/12/05 09:19:00;;;;;;;4.97;2.10;;;24.70;99.90;;;;;;4938280;29;20191;-72
2022/12/05 09:21:30;;;;;;;16.03;2.67;;;24.80;99.90;;;;;;4937876;29;20726;-71
2022/12/05 09:24:01;;;;;;;9.80;3.03;;;25.00;99.90;;;;;;4937992;29;20196;-72
2022/12/05 09:26:29;;;;;;;16.40;5.00;;;24.60;99.90;;;;;;4937588;29;20192;-71
2022/12/05 09:28:57;;;;;;;26.10;5.67;;;24.10;99.90;;;;;;4937926;29;20184;-73
2022/12/05 09:31:26;;;;;;;14.90;3.43;;;23.30;99.90;;;;;;4937522;29;20195;-73
2022/12/05 09:33:54;;;;;;;13.53;4.03;;;22.70;99.90;;;;;;4937411;29;20195;-73
2022/12/05 09:36:27;;;;;;;11.57;3.53;;;22.20;99.90;;;;;;4937486;29;20177;-71
2022/12/05 09:38:58;;;;;;;13.33;3.93;;;22.00;99.90;;;;;;4936489;29;20192;-71
2022/12/05 09:42:03;;;;;;;9.23;3.70;;;21.90;99.90;;;;;;4937671;29;20555;-72
2022/12/05 09:44:45;;;;;;;10.43;3.63;;;22.00;99.90;;;;;;4916926;29;20248;-72
2022/12/05 09:47:39;;;;;;;8.37;3.47;;;22.00;99.90;;;;;;4937547;29;20243;-72
2022/12/05 09:50:24;;;;;;;11.40;3.90;;;22.00;99.90;;;;;;4937367;29;20531;-72
2022/12/05 09:53:26;;;;;;;8.23;2.70;;;21.90;99.90;;;;;;4918499;29;20223;-72
2022/12/05 09:56:22;;;;;;;8.93;3.60;;;21.90;99.90;;;;;;4823582;29;20285;-72
2022/12/05 09:58:54;;;;;;;11.00;2.80;;;21.90;99.90;;;;;;4918402;29;20569;-73
2022/12/05 10:01:41;;;;;;;13.33;3.73;;;21.90;99.90;;;;;;4936210;29;20225;-72
2022/12/05 10:04:14;;;;;;;10.57;3.23;;;21.90;99.90;;;;;;4937645;29;20190;-72
2022/12/05 10:06:49;;;;;;;11.77;3.33;;;22.00;99.90;;;;;;4938061;29;20211;-72
2022/12/05 10:09:32;;;;;;;8.53;3.10;;;22.00;99.90;;;;;;4937369;29;20282;-73
2022/12/05 10:12:19;;;;;;;10.33;3.03;;;22.00;99.90;;;;;;4937187;29;20220;-73
2022/12/05 10:15:00;;;;;;;10.87;3.33;;;22.00;99.90;;;;;;4937522;29;20165;-73
2022/12/05 10:17:40;;;;;;;7.80;3.10;;;22.00;99.90;;;;;;4937375;29;20236;-73
2022/12/05 10:20:18;;;;;;;9.37;3.30;;;21.90;99.90;;;;;;4935722;29;20199;-73
2022/12/05 10:22:54;;;;;;;9.87;2.80;;;22.00;99.90;;;;;;4936986;29;20640;-73
2022/12/05 10:25:23;;;;;;;7.80;3.50;;;22.00;99.90;;;;;;4935441;29;20566;-73
2022/12/05 10:27:52;;;;;;;11.93;3.73;;;22.30;99.90;;;;;;4935730;29;20279;-73
2022/12/05 10:30:28;;;;;;;10.27;3.43;;;22.40;99.90;;;;;;4935809;29;20227;-73
2022/12/05 10:33:20;;;;;;;8.03;3.30;;;22.40;99.90;;;;;;4918351;29;20666;-72
2022/12/05 10:35:52;;;;;;;7.63;3.20;;;22.30;99.90;;;;;;4916667;29;20188;-72
2022/12/05 10:38:33;;;;;;;15.90;4.00;;;22.20;99.90;;;;;;4918165;29;20252;-71
2022/12/05 10:41:08;;;;;;;8.93;3.50;;;22.10;99.90;;;;;;4922125;29;20274;-72
2022/12/05 10:43:39;;;;;;;7.87;3.30;;;22.00;99.90;;;;;;4936900;29;20188;-73
2022/12/05 10:46:06;;;;;;;8.70;2.60;;;22.00;99.90;;;;;;4936943;29;20247;-73
2022/12/05 10:48:39;;;;;;;14.57;3.27;;;21.80;99.90;;;;;;4936376;29;20268;-73
2022/12/05 10:51:12;;;;;;;8.23;2.83;;;21.70;99.90;;;;;;4936816;29;20647;-72
2022/12/05 10:53:44;;;;;;;11.20;2.83;;;21.70;99.90;;;;;;4936538;29;20562;-72
2022/12/05 10:56:43;;;;;;;7.13;2.73;;;21.60;99.90;;;;;;4936995;29;20185;-72
2022/12/05 10:59:19;;;;;;;6.27;2.40;;;21.60;99.90;;;;;;4917670;29;20188;-72
2022/12/05 11:01:57;;;;;;;8.40;2.70;;;21.50;99.90;;;;;;4917538;29;20647;-73
2022/12/05 11:04:30;;;;;;;6.00;2.23;;;21.50;99.90;;;;;;4917588;29;20640;-73
2022/12/05 11:07:02;;;;;;;9.53;3.47;;;21.40;99.90;;;;;;4922692;29;20181;-72
2022/12/05 11:09:39;;;;;;;9.90;2.80;;;21.30;99.90;;;;;;4936673;29;20212;-72
2022/12/05 11:12:09;;;;;;;9.87;3.57;;;21.30;99.90;;;;;;4936647;29;20223;-72
2022/12/05 11:14:36;;;;;;;12.23;2.90;;;21.30;99.90;;;;;;4936204;29;20212;-71
2022/12/05 11:17:05;;;;;;;13.73;3.13;;;21.30;99.90;;;;;;4935995;29;20193;-71
2022/12/05 11:19:36;;;;;;;12.90;3.60;;;21.30;99.90;;;;;;4935965;29;20195;-72
2022/12/05 11:22:08;;;;;;;16.73;4.17;;;21.30;99.90;;;;;;4936545;29;20587;-72
2022/12/05 11:24:37;;;;;;;15.17;4.50;;;21.20;99.90;;;;;;4936255;29;20181;-72
2022/12/05 11:27:17;;;;;;;18.73;5.13;;;21.10;99.90;;;;;;4936159;29;20199;-72
2022/12/05 11:30:05;;;;;;;13.53;5.33;;;21.00;99.90;;;;;;4936314;29;20669;-71
2022/12/05 11:32:34;;;;;;;19.60;5.37;;;20.90;99.90;;;;;;4926647;29;20231;-72
2022/12/05 11:35:13;;;;;;;14.43;5.30;;;20.80;99.90;;;;;;4936102;29;20678;-72
2022/12/05 11:37:55;;;;;;;22.23;5.60;;;20.80;99.90;;;;;;4935828;29;20673;-72
2022/12/05 11:40:36;;;;;;;18.33;5.50;;;20.70;99.90;;;;;;4936529;29;20184;-72
2022/12/05 11:43:27;;;;;;;24.03;5.97;;;20.80;99.90;;;;;;4935914;29;20184;-72
2022/12/05 11:46:17;;;;;;;25.67;6.80;;;20.70;99.90;;;;;;4936321;29;20182;-73
2022/12/05 11:48:50;;;;;;;18.43;6.57;;;20.60;99.90;;;;;;4915790;29;20248;-73
2022/12/05 11:51:21;;;;;;;20.23;6.40;;;20.50;99.90;;;;;;4934295;29;20186;-73
2022/12/05 11:54:29;;;;;;;17.73;6.70;;;20.60;99.90;;;;;;4936000;29;20650;-73
2022/12/05 11:57:08;;;;;;;16.93;6.87;;;20.60;99.90;;;;;;4916295;29;20197;-73
2022/12/05 12:00:00;;;;;;;24.97;7.07;;;20.60;99.90;;;;;;4936113;29;20178;-73
2022/12/05 12:02:40;;;;;;;32.53;7.30;;;20.60;99.90;;;;;;4936080;29;20185;-73
2022/12/05 12:05:58;;;;;;;19.73;6.90;;;20.60;99.90;;;;;;4935946;29;20213;-71
2022/12/05 12:08:30;;;;;;;17.93;6.57;;;20.60;99.90;;;;;;4877278;29;20338;-72
2022/12/05 12:11:20;;;;;;;19.43;7.73;;;20.50;99.90;;;;;;4932632;29;20200;-72
2022/12/05 12:14:08;;;;;;;24.37;7.23;;;20.50;99.90;;;;;;4934764;29;20231;-72
2022/12/05 12:17:15;;;;;;;22.87;7.40;;;20.50;99.90;;;;;;4939845;29;20674;-72
2022/12/05 12:20:16;;;;;;;27.77;8.10;;;20.50;99.90;;;;;;4923513;29;20195;-72
2022/12/05 12:23:05;;;;;;;19.47;6.63;;;20.50;99.90;;;;;;4939930;29;20176;-74
2022/12/05 12:25:35;;;;;;;24.23;7.83;;;20.50;99.90;;;;;;4939522;29;20190;-72
2022/12/05 12:28:37;;;;;;;22.40;7.83;;;20.40;99.90;;;;;;4939102;29;20533;-72
2022/12/05 12:31:07;;;;;;;29.03;8.40;;;20.40;99.90;;;;;;4880883;29;20650;-71
2022/12/05 12:33:53;;;;;;;27.07;8.73;;;20.40;99.90;;;;;;4928199;29;20243;-72
2022/12/05 12:37:00;;;;;;;31.13;8.60;;;20.40;99.90;;;;;;4939948;29;20174;-72
2022/12/05 12:40:03;;;;;;;25.07;8.70;;;20.30;99.90;;;;;;4926964;29;20214;-73
2022/12/05 12:42:43;;;;;;;22.27;8.67;;;20.30;99.90;;;;;;4939696;29;20264;-73
2022/12/05 12:45:46;;;;;;;24.90;8.40;;;20.30;99.90;;;;;;4939080;29;20187;-72
2022/12/05 12:48:55;;;;;;;18.80;7.90;;;20.30;99.90;;;;;;4937429;29;20309;-73
2022/12/05 12:51:27;;;;;;;24.57;8.70;;;20.30;99.90;;;;;;4894341;29;20207;-72
2022/12/05 12:54:12;;;;;;;23.30;8.10;;;20.30;99.90;;;;;;4919988;29;20185;-72
2022/12/05 12:56:43;;;;;;;18.60;7.60;;;20.30;99.90;;;;;;4919939;29;20248;-73
2022/12/05 12:59:32;;;;;;;22.43;8.83;;;20.30;99.90;;;;;;4920808;29;20193;-73
2022/12/05 13:02:13;;;;;;;18.10;8.83;;;20.30;99.90;;;;;;4939033;29;20187;-73
2022/12/05 13:04:53;;;;;;;22.67;8.50;;;20.30;99.90;;;;;;4938567;29;20180;-73
2022/12/05 13:07:38;;;;;;;20.80;8.33;;;20.30;99.90;;;;;;4937686;29;20224;-73
2022/12/05 13:10:33;;;;;;;23.97;8.07;;;20.30;99.90;;;;;;4938626;29;20199;-73
2022/12/05 13:13:01;;;;;;;19.87;8.00;;;20.30;99.90;;;;;;4938528;29;20307;-73
2022/12/05 13:15:46;;;;;;;21.93;9.20;;;20.30;99.90;;;;;;4938675;29;20646;-72
2022/12/05 13:18:18;;;;;;;22.20;8.27;;;20.30;99.90;;;;;;4938663;29;20188;-73
2022/12/05 13:20:48;;;;;;;22.30;8.33;;;20.30;99.90;;;;;;4938181;29;20674;-73
2022/12/05 13:23:19;;;;;;;21.30;8.67;;;20.30;99.90;;;;;;4938188;29;20199;-72
2022/12/05 13:25:47;;;;;;;20.13;8.93;;;20.30;99.90;;;;;;4938616;29;20206;-72
2022/12/05 13:28:57;;;;;;;23.83;9.03;;;20.20;99.90;;;;;;4938711;29;20260;-73
2022/12/05 13:31:43;;;;;;;26.37;9.27;;;20.20;99.90;;;;;;4938174;29;20218;-73
2022/12/05 13:34:28;;;;;;;20.33;9.67;;;20.20;99.90;;;;;;4937190;29;20193;-72